createdAt,value
2023-02-17T00:00:18.482Z,100001.63
2023-02-17T00:03:40.091Z,100001.98
2023-02-17T00:06:41.706Z,100002.84
2023-02-17T00:09:43.356Z,100005.73
2023-02-17T00:12:45.584Z,100006.77
2023-02-17T00:15:47.206Z,100002.16
2023-02-17T00:18:52.410Z,100002.67
2023-02-17T00:21:56.889Z,100000.98
2023-02-17T00:24:58.648Z,99997.38
2023-02-17T00:28:00.382Z,100000.96
2023-02-17T00:31:09.732Z,99997.53
2023-02-17T00:34:12.077Z,100000.95
2023-02-17T00:37:14.126Z,99997.71
2023-02-17T00:40:15.826Z,100000.09
2023-02-17T00:43:17.326Z,99998.90
2023-02-17T00:46:19.256Z,99993.98
2023-02-17T00:49:24.579Z,99995.88
2023-02-17T00:52:26.229Z,99991.77
2023-02-17T00:55:27.917Z,99985.98
2023-02-17T00:58:29.602Z,99986.83
2023-02-17T01:01:32.459Z,99981.39
2023-02-17T01:04:34.384Z,99979.18
2023-02-17T01:07:36.122Z,99974.27
2023-02-17T01:10:38.861Z,99970.16
2023-02-17T01:13:40.577Z,99966.43
2023-02-17T01:16:44.398Z,99965.75
2023-02-17T01:19:46.119Z,99960.98
2023-02-17T01:22:47.596Z,99954.33
2023-02-17T01:25:49.599Z,99945.11
2023-02-17T01:28:52.457Z,99940.34
2023-02-17T01:31:54.088Z,99936.07
2023-02-17T01:34:55.704Z,99929.23
2023-02-17T01:37:57.350Z,99927.86
2023-02-17T01:40:59.250Z,99922.41
2023-02-17T01:44:11.876Z,99920.36
2023-02-17T01:47:16.594Z,99918.83
2023-02-17T01:50:21.590Z,99916.95
2023-02-17T01:53:28.406Z,99918.17
2023-02-17T01:56:31.640Z,99911.00
2023-02-17T01:59:33.342Z,99897.70
2023-02-17T02:02:35.537Z,99893.94
2023-02-17T02:05:38.650Z,99893.23
2023-02-17T02:08:56.801Z,99892.86
2023-02-17T02:11:58.613Z,99890.46
2023-02-17T02:15:05.916Z,99892.31
2023-02-17T02:18:39.576Z,99892.30
2023-02-17T02:22:22.812Z,99897.23
2023-02-17T02:25:39.874Z,99898.58
2023-02-17T02:28:44.320Z,99903.02
2023-02-17T02:32:34.565Z,99901.98
2023-02-17T02:36:06.060Z,99906.75
2023-02-17T02:39:11.688Z,99905.21
2023-02-17T02:42:16.086Z,99902.70
2023-02-17T02:45:19.055Z,99901.31
2023-02-17T02:48:20.700Z,99902.70
2023-02-17T02:51:22.299Z,99902.55
2023-02-17T02:54:42.505Z,99905.95
2023-02-17T02:57:52.786Z,99909.55
2023-02-17T03:01:21.019Z,99903.09
2023-02-17T03:04:31.978Z,99902.74
2023-02-17T03:07:40.768Z,99900.88
2023-02-17T03:10:51.376Z,99899.36
2023-02-17T03:13:53.180Z,99894.60
2023-02-17T03:16:54.700Z,99900.90
2023-02-17T03:19:56.325Z,99898.86
2023-02-17T03:22:58.162Z,99903.64
2023-02-17T03:25:59.808Z,99899.20
2023-02-17T03:29:01.399Z,99900.74
2023-02-17T03:32:03.132Z,99898.70
2023-02-17T03:35:05.159Z,99895.61
2023-02-17T03:38:06.864Z,99897.14
2023-02-17T03:41:08.535Z,99897.83
2023-02-17T03:44:10.156Z,99898.67
2023-02-17T03:47:11.856Z,99892.37
2023-02-17T03:50:13.668Z,99892.70
2023-02-17T03:53:15.228Z,99886.89
2023-02-17T03:56:18.260Z,99882.27
2023-02-17T03:59:20.046Z,99884.32
2023-02-17T04:02:21.646Z,99881.92
2023-02-17T04:05:24.475Z,99880.39
2023-02-17T04:08:26.265Z,99883.66
2023-02-17T04:11:27.955Z,99883.86
2023-02-17T04:14:29.581Z,99881.48
2023-02-17T04:17:31.319Z,99878.92
2023-02-17T04:20:32.833Z,99873.33
2023-02-17T04:23:36.343Z,99868.91
2023-02-17T04:26:38.484Z,99871.44
2023-02-17T04:29:40.230Z,99870.25
2023-02-17T04:32:41.873Z,99865.48
2023-02-17T04:35:43.552Z,99868.21
2023-02-17T04:38:45.425Z,99867.18
2023-02-17T04:41:47.232Z,99863.43
2023-02-17T04:44:48.965Z,99865.30
2023-02-17T04:47:51.001Z,99869.90
2023-02-17T04:50:52.738Z,99868.19
2023-02-17T04:53:54.463Z,99862.90
2023-02-17T04:56:56.001Z,99861.02
2023-02-17T04:59:57.569Z,99853.86
2023-02-17T05:02:59.261Z,99845.84
2023-02-17T05:06:01.563Z,99844.65
2023-02-17T05:09:03.356Z,99846.09
2023-02-17T05:12:04.874Z,99854.16
2023-02-17T05:15:07.424Z,99855.52
2023-02-17T05:18:09.231Z,99851.27
2023-02-17T05:21:10.859Z,99844.28
2023-02-17T05:24:12.616Z,99840.89
2023-02-17T05:27:14.154Z,99843.63
2023-02-17T05:30:15.920Z,99843.29
2023-02-17T05:33:17.425Z,99841.94
2023-02-17T05:36:19.105Z,99837.17
2023-02-17T05:39:20.680Z,99834.23
2023-02-17T05:42:22.486Z,99839.51
2023-02-17T05:45:24.212Z,99841.55
2023-02-17T05:48:25.876Z,99843.74
2023-02-17T05:51:27.753Z,99840.48
2023-02-17T05:54:29.266Z,99842.02
2023-02-17T05:57:31.591Z,99842.03
2023-02-17T06:00:33.263Z,99842.73
2023-02-17T06:03:34.825Z,99837.77
2023-02-17T06:06:36.428Z,99834.21
2023-02-17T06:09:38.010Z,99829.27
2023-02-17T06:12:39.808Z,99826.35
2023-02-17T06:15:41.255Z,99823.77
2023-02-17T06:18:42.868Z,99823.25
2023-02-17T06:21:44.476Z,99819.31
2023-02-17T06:24:46.112Z,99815.20
2023-02-17T06:27:47.669Z,99813.64
2023-02-17T06:30:49.546Z,99811.05
2023-02-17T06:33:51.032Z,99813.04
2023-02-17T06:36:52.696Z,99809.18
2023-02-17T06:39:54.353Z,99807.05
2023-02-17T06:42:55.908Z,99803.41
2023-02-17T06:45:57.503Z,99805.06
2023-02-17T06:48:59.174Z,99801.96
2023-02-17T06:52:00.772Z,99803.48
2023-02-17T06:55:02.413Z,99801.58
2023-02-17T06:58:04.165Z,99798.43
2023-02-17T07:01:05.917Z,99798.17
2023-02-17T07:04:07.455Z,99802.87
2023-02-17T07:07:10.676Z,99810.30
2023-02-17T07:10:12.380Z,99809.70
2023-02-17T07:13:14.089Z,99815.08
2023-02-17T07:16:16.209Z,99819.43
2023-02-17T07:19:18.029Z,99820.38
2023-02-17T07:22:19.935Z,99821.89
2023-02-17T07:25:21.749Z,99827.98
2023-02-17T07:28:23.275Z,99826.92
2023-02-17T07:31:25.035Z,99829.42
2023-02-17T07:34:26.633Z,99828.13
2023-02-17T07:37:28.373Z,99826.33
2023-02-17T07:40:29.979Z,99823.60
2023-02-17T07:43:31.902Z,99816.27
2023-02-17T07:46:33.370Z,99808.59
2023-02-17T07:49:35.227Z,99810.77
2023-02-17T07:52:37.291Z,99815.61
2023-02-17T07:55:38.959Z,99817.49
2023-02-17T07:58:41.976Z,99812.22
2023-02-17T08:01:43.823Z,99801.70
2023-02-17T08:04:45.561Z,99796.79
2023-02-17T08:07:47.109Z,99792.20
2023-02-17T08:10:48.764Z,99780.45
2023-02-17T08:13:50.278Z,99774.35
2023-02-17T08:16:52.763Z,99769.94
2023-02-17T08:19:55.271Z,99771.60
2023-02-17T08:22:57.028Z,99764.41
2023-02-17T08:25:58.919Z,99757.69
2023-02-17T08:29:00.352Z,99752.23
2023-02-17T08:32:02.299Z,99748.30
2023-02-17T08:35:04.223Z,99748.29
2023-02-17T08:38:05.822Z,99750.05
2023-02-17T08:41:13.681Z,99756.33
2023-02-17T08:44:17.447Z,99759.48
2023-02-17T08:47:37.531Z,99757.74
2023-02-17T08:50:39.147Z,99753.45
2023-02-17T08:53:40.776Z,99743.35
2023-02-17T08:56:42.466Z,99734.89
2023-02-17T08:59:44.176Z,99734.95
2023-02-17T09:02:45.934Z,99727.58
2023-02-17T09:05:49.942Z,99722.73
2023-02-17T09:08:52.292Z,99724.02
2023-02-17T09:11:56.204Z,99719.16
2023-02-17T09:14:57.877Z,99723.39
2023-02-17T09:17:59.491Z,99720.00
2023-02-17T09:21:09.447Z,99723.09
2023-02-17T09:24:11.178Z,99723.05
2023-02-17T09:27:13.024Z,99714.86
2023-02-17T09:30:14.900Z,99709.58
2023-02-17T09:33:16.564Z,99698.60
2023-02-17T09:36:21.191Z,99698.45
2023-02-17T09:39:22.850Z,99698.16
2023-02-17T09:42:26.218Z,99692.92
2023-02-17T09:45:32.859Z,99692.48
2023-02-17T09:48:35.309Z,99688.48
2023-02-17T09:51:45.824Z,99684.54
2023-02-17T09:54:58.664Z,99679.31
2023-02-17T09:58:03.935Z,99675.84
2023-02-17T10:01:14.189Z,99674.37
2023-02-17T10:04:20.935Z,99673.20
2023-02-17T10:07:33.239Z,99672.87
2023-02-17T10:10:40.293Z,99674.17
2023-02-17T10:13:43.143Z,99670.34
2023-02-17T10:16:55.063Z,99670.66
2023-02-17T10:20:18.382Z,99667.21
2023-02-17T10:23:23.440Z,99663.95
2023-02-17T10:26:40.272Z,99658.98
2023-02-17T10:29:57.339Z,99650.16
2023-02-17T10:33:14.246Z,99643.23
2023-02-17T10:36:26.466Z,99634.79
2023-02-17T10:40:00.670Z,99628.12
2023-02-17T10:43:07.314Z,99623.25
2023-02-17T10:46:09.923Z,99613.54
2023-02-17T10:49:19.164Z,99618.70
2023-02-17T10:52:24.577Z,99615.94
2023-02-17T10:55:31.832Z,99611.55
2023-02-17T10:58:38.953Z,99608.71
2023-02-17T11:01:41.399Z,99603.56
2023-02-17T11:04:45.380Z,99600.77
2023-02-17T11:07:47.395Z,99594.55
2023-02-17T11:11:02.903Z,99587.75
2023-02-17T11:14:12.845Z,99579.91
2023-02-17T11:17:38.172Z,99578.15
2023-02-17T11:20:39.717Z,99569.76
2023-02-17T11:24:04.243Z,99565.11
2023-02-17T11:27:10.474Z,99562.02
2023-02-17T11:30:16.259Z,99566.77
2023-02-17T11:33:24.209Z,99560.61
2023-02-17T11:36:30.578Z,99554.02
2023-02-17T11:39:41.384Z,99553.88
2023-02-17T11:42:42.935Z,99546.30
2023-02-17T11:45:49.154Z,99548.24
2023-02-17T11:49:28.696Z,99548.98
2023-02-17T11:52:49.140Z,99541.12
2023-02-17T11:56:02.442Z,99541.70
2023-02-17T11:59:17.621Z,99533.20
2023-02-17T12:02:38.161Z,99520.38
2023-02-17T12:05:49.011Z,99512.66
2023-02-17T12:09:06.443Z,99506.77
2023-02-17T12:12:16.941Z,99500.56
2023-02-17T12:15:37.589Z,99501.91
2023-02-17T12:18:50.091Z,99503.06
2023-02-17T12:22:20.694Z,99501.73
2023-02-17T12:25:26.381Z,99504.34
2023-02-17T12:29:02.545Z,99508.27
2023-02-17T12:32:23.132Z,99506.75
2023-02-17T12:36:10.795Z,99502.23
2023-02-17T12:39:20.018Z,99495.66
2023-02-17T12:42:27.394Z,99500.38
2023-02-17T12:45:44.620Z,99499.77
2023-02-17T12:48:54.277Z,99489.69
2023-02-17T12:52:00.035Z,99482.72
2023-02-17T12:55:21.917Z,99482.67
2023-02-17T12:58:29.136Z,99477.87
2023-02-17T13:01:32.353Z,99471.55
2023-02-17T13:04:34.863Z,99473.33
2023-02-17T13:07:53.962Z,99467.55
2023-02-17T13:11:08.299Z,99462.66
2023-02-17T13:14:12.304Z,99463.12
2023-02-17T13:17:26.122Z,99458.61
2023-02-17T13:20:52.247Z,99453.57
2023-02-17T13:24:06.122Z,99453.91
2023-02-17T13:27:24.644Z,99441.21
2023-02-17T13:30:40.881Z,99436.78
2023-02-17T13:33:56.765Z,99428.41
2023-02-17T13:37:01.173Z,99423.27
2023-02-17T13:40:23.779Z,99423.98
2023-02-17T13:43:25.789Z,99419.69
2023-02-17T13:46:27.728Z,99410.05
2023-02-17T13:49:32.223Z,99402.77
2023-02-17T13:52:33.865Z,99402.64
2023-02-17T13:55:35.655Z,99403.30
2023-02-17T13:58:39.783Z,99396.86
2023-02-17T14:01:42.917Z,99393.16
2023-02-17T14:04:44.585Z,99389.02
2023-02-17T14:07:47.640Z,99380.46
2023-02-17T14:10:49.535Z,99371.70
2023-02-17T14:13:52.859Z,99373.83
2023-02-17T14:17:12.922Z,99366.98
2023-02-17T14:20:29.925Z,99363.67
2023-02-17T14:23:46.998Z,99354.91
2023-02-17T14:26:49.220Z,99346.19
2023-02-17T14:29:50.844Z,99348.23
2023-02-17T14:33:05.302Z,99336.84
2023-02-17T14:36:07.597Z,99341.93
2023-02-17T14:39:14.523Z,99333.11
2023-02-17T14:42:16.217Z,99332.33
2023-02-17T14:45:19.290Z,99328.95
2023-02-17T14:48:21.090Z,99328.91
2023-02-17T14:51:25.706Z,99320.44
2023-02-17T14:54:30.354Z,99318.10
2023-02-17T14:57:32.133Z,99309.70
2023-02-17T15:00:33.783Z,99303.89
2023-02-17T15:03:35.423Z,99299.47
2023-02-17T15:06:40.899Z,99293.94
2023-02-17T15:09:44.529Z,99293.77
2023-02-17T15:12:46.837Z,99289.40
2023-02-17T15:15:48.632Z,99284.59
2023-02-17T15:18:50.172Z,99282.48
2023-02-17T15:21:52.253Z,99273.50
2023-02-17T15:24:53.856Z,99267.89
2023-02-17T15:27:55.415Z,99266.07
2023-02-17T15:30:57.014Z,99262.58
2023-02-17T15:33:59.117Z,99260.48
2023-02-17T15:37:01.484Z,99257.78
2023-02-17T15:40:03.075Z,99248.30
2023-02-17T15:43:04.984Z,99245.80
2023-02-17T15:46:13.639Z,99238.29
2023-02-17T15:49:15.366Z,99231.94
2023-02-17T15:52:17.056Z,99231.31
2023-02-17T15:55:19.823Z,99222.55
2023-02-17T15:58:22.657Z,99221.80
2023-02-17T16:01:30.184Z,99219.41
2023-02-17T16:04:31.848Z,99209.13
2023-02-17T16:07:34.203Z,99208.58
2023-02-17T16:10:36.888Z,99196.98
2023-02-17T16:13:40.118Z,99191.43
2023-02-17T16:16:41.779Z,99190.04
2023-02-17T16:19:43.859Z,99188.19
2023-02-17T16:22:46.061Z,99184.34
2023-02-17T16:25:48.705Z,99183.91
2023-02-17T16:28:50.362Z,99176.34
2023-02-17T16:31:52.015Z,99175.55
2023-02-17T16:34:53.687Z,99169.19
2023-02-17T16:38:08.743Z,99161.58
2023-02-17T16:41:14.694Z,99154.65
2023-02-17T16:44:17.880Z,99154.10
2023-02-17T16:47:21.730Z,99144.13
2023-02-17T16:50:30.539Z,99144.19
2023-02-17T16:53:32.198Z,99133.27
2023-02-17T16:56:37.284Z,99131.45
2023-02-17T16:59:38.937Z,99129.14
2023-02-17T17:02:40.617Z,99122.86
2023-02-17T17:05:42.360Z,99120.52
2023-02-17T17:08:44.170Z,99118.97
2023-02-17T17:11:45.896Z,99116.23
2023-02-17T17:14:47.783Z,99115.45
2023-02-17T17:17:49.284Z,99103.98
2023-02-17T17:20:50.851Z,99099.10
2023-02-17T17:23:52.593Z,99084.13
2023-02-17T17:26:54.443Z,99086.00
2023-02-17T17:29:55.987Z,99084.70
2023-02-17T17:32:57.618Z,99089.66
2023-02-17T17:35:59.186Z,99090.86
2023-02-17T17:39:01.166Z,99085.28
2023-02-17T17:42:02.791Z,99079.93
2023-02-17T17:45:04.482Z,99071.07
2023-02-17T17:48:06.141Z,99053.27
2023-02-17T17:51:08.986Z,99040.36
2023-02-17T17:54:10.595Z,99034.89
2023-02-17T17:57:12.616Z,99033.05
2023-02-17T18:00:16.107Z,99034.69
2023-02-17T18:03:17.758Z,99040.33
2023-02-17T18:06:34.289Z,99024.88
2023-02-17T18:09:37.386Z,99017.11
2023-02-17T18:12:39.876Z,99016.36
2023-02-17T18:15:41.953Z,99016.84
2023-02-17T18:18:43.648Z,99015.88
2023-02-17T18:21:45.758Z,99016.39
2023-02-17T18:24:47.516Z,99014.50
2023-02-17T18:27:49.054Z,99014.02
2023-02-17T18:30:50.621Z,99018.21
2023-02-17T18:33:53.277Z,99015.38
2023-02-17T18:36:54.971Z,99012.15
2023-02-17T18:39:56.640Z,99020.81
2023-02-17T18:42:58.129Z,99025.00
2023-02-17T18:45:59.813Z,99016.27
2023-02-17T18:49:01.520Z,99001.92
2023-02-17T18:52:03.100Z,99001.41
2023-02-17T18:55:05.230Z,98993.62
2023-02-17T18:58:06.903Z,98990.02
2023-02-17T19:01:21.748Z,99000.19
2023-02-17T19:04:23.730Z,98981.16
2023-02-17T19:07:25.760Z,98972.67
2023-02-17T19:10:27.511Z,98983.06
2023-02-17T19:13:29.314Z,98984.08
2023-02-17T19:16:31.913Z,98988.17
2023-02-17T19:19:36.709Z,98993.67
2023-02-17T19:22:38.705Z,98986.06
2023-02-17T19:25:40.269Z,98989.20
2023-02-17T19:28:41.950Z,98993.13
2023-02-17T19:31:43.665Z,98997.70
2023-02-17T19:34:45.413Z,98992.80
2023-02-17T19:37:47.043Z,98992.94
2023-02-17T19:40:48.685Z,98987.83
2023-02-17T19:43:50.797Z,98990.92
2023-02-17T19:46:52.444Z,98990.55
2023-02-17T19:49:54.090Z,98988.55
2023-02-17T19:52:55.784Z,98991.84
2023-02-17T19:56:12.751Z,98984.73
2023-02-17T19:59:14.689Z,98988.21
2023-02-17T20:02:16.481Z,98995.55
2023-02-17T20:05:18.147Z,98997.53
2023-02-17T20:08:19.791Z,98995.55
2023-02-17T20:11:21.483Z,98997.17
2023-02-17T20:14:23.261Z,99004.13
2023-02-17T20:17:24.862Z,99012.69
2023-02-17T20:20:26.450Z,99015.04
2023-02-17T20:23:28.007Z,99008.29
2023-02-17T20:26:32.644Z,99004.66
2023-02-17T20:29:34.370Z,98995.08
2023-02-17T20:32:35.966Z,98997.64
2023-02-17T20:35:37.841Z,99002.64
2023-02-17T20:38:40.474Z,99006.11
2023-02-17T20:41:42.040Z,99002.00
2023-02-17T20:44:43.569Z,99003.15
2023-02-17T20:47:45.321Z,99008.23
2023-02-17T20:50:46.928Z,99006.05
2023-02-17T20:53:48.566Z,99015.16
2023-02-17T20:56:50.361Z,99015.88
2023-02-17T20:59:52.158Z,99014.03
2023-02-17T21:02:54.424Z,99002.51
2023-02-17T21:05:56.098Z,99002.11
2023-02-17T21:08:58.592Z,98997.35
2023-02-17T21:12:00.196Z,98997.08
2023-02-17T21:15:01.770Z,98993.58
2023-02-17T21:18:03.227Z,98993.54
2023-02-17T21:21:05.068Z,98992.39
2023-02-17T21:24:06.821Z,98984.31
2023-02-17T21:27:08.426Z,98975.36
2023-02-17T21:30:12.008Z,98979.76
2023-02-17T21:33:13.774Z,98986.50
2023-02-17T21:36:17.568Z,98984.54
2023-02-17T21:39:19.118Z,98988.29
2023-02-17T21:42:20.620Z,98979.30
2023-02-17T21:45:22.915Z,98970.38
2023-02-17T21:48:24.546Z,98970.59
2023-02-17T21:51:26.001Z,98974.09
2023-02-17T21:54:27.615Z,98974.58
2023-02-17T21:57:29.207Z,98977.59
2023-02-17T22:00:30.820Z,98968.70
2023-02-17T22:03:32.771Z,98980.41
2023-02-17T22:06:37.694Z,98987.52
2023-02-17T22:09:39.258Z,98976.91
2023-02-17T22:12:40.776Z,98971.01
2023-02-17T22:15:42.327Z,98969.42
2023-02-17T22:18:43.831Z,98968.15
2023-02-17T22:21:46.175Z,98974.53
2023-02-17T22:24:47.790Z,98975.80
2023-02-17T22:27:49.373Z,98970.77
2023-02-17T22:30:54.110Z,98968.02
2023-02-17T22:33:57.521Z,98961.58
2023-02-17T22:36:59.244Z,98962.04
2023-02-17T22:40:00.932Z,98964.77
2023-02-17T22:43:02.637Z,98960.38
2023-02-17T22:46:04.827Z,98961.33
2023-02-17T22:49:06.484Z,98965.30
2023-02-17T22:52:08.510Z,98991.16
2023-02-17T22:55:10.047Z,98979.06
2023-02-17T22:58:11.652Z,98985.52
2023-02-17T23:01:15.761Z,98991.04
2023-02-17T23:04:17.710Z,99001.46
2023-02-17T23:07:19.336Z,98995.46
2023-02-17T23:10:21.034Z,98982.86
2023-02-17T23:13:22.586Z,98965.36
2023-02-17T23:16:24.310Z,98946.53
2023-02-17T23:19:26.314Z,98940.30
2023-02-17T23:22:28.216Z,98930.17
2023-02-17T23:25:29.980Z,98930.60
2023-02-17T23:28:31.940Z,98940.49
2023-02-17T23:31:33.869Z,98944.59
2023-02-17T23:34:35.701Z,98954.95
2023-02-17T23:37:37.434Z,98960.98
2023-02-17T23:40:39.749Z,98966.43
2023-02-17T23:43:41.356Z,98976.97
2023-02-17T23:46:44.567Z,98968.45
2023-02-17T23:49:46.149Z,98973.73
2023-02-17T23:52:47.845Z,98975.77
2023-02-17T23:55:49.420Z,98975.14
2023-02-17T23:58:51.582Z,98963.55
